sensor_id;sensor_type;location;lat;lon;timestamp;P1;durP1;ratioP1;P2;durP2;ratioP2
67363;SDS011;54250;45.572;38.086;2023-02-26T00:01:02;0.68;;;0.68;;
67363;SDS011;54250;45.572;38.086;2023-02-26T00:03:36;0.40;;;0.40;;
67363;SDS011;54250;45.572;38.086;2023-02-26T00:06:02;0.55;;;0.55;;
67363;SDS011;54250;45.572;38.086;2023-02-26T00:08:28;1.30;;;0.50;;
67363;SDS011;54250;45.572;38.086;2023-02-26T00:10:56;0.70;;;0.52;;
67363;SDS011;54250;45.572;38.086;2023-02-26T00:13:22;1.05;;;0.47;;
67363;SDS011;54250;45.572;38.086;2023-02-26T00:15:49;1.30;;;0.70;;
67363;SDS011;54250;45.572;38.086;2023-02-26T00:18:20;10.55;;;0.80;;
67363;SDS011;54250;45.572;38.086;2023-02-26T00:20:47;2.55;;;0.65;;
67363;SDS011;54250;45.572;38.086;2023-02-26T00:23:13;1.77;;;0.60;;
67363;SDS011;54250;45.572;38.086;2023-02-26T00:25:39;5.63;;;2.05;;
67363;SDS011;54250;45.572;38.086;2023-02-26T00:28:07;3.83;;;0.82;;
67363;SDS011;54250;45.572;38.086;2023-02-26T00:30:34;1.33;;;0.50;;
67363;SDS011;54250;45.572;38.086;2023-02-26T00:33:00;4.43;;;1.00;;
67363;SDS011;54250;45.572;38.086;2023-02-26T00:35:27;0.30;;;0.30;;
67363;SDS011;54250;45.572;38.086;2023-02-26T00:40:39;2.75;;;0.88;;
67363;SDS011;54250;45.572;38.086;2023-02-26T00:43:07;3.80;;;0.88;;
67363;SDS011;54250;45.572;38.086;2023-02-26T00:45:38;0.82;;;0.70;;
67363;SDS011;54250;45.572;38.086;2023-02-26T00:50:49;0.40;;;0.40;;
67363;SDS011;54250;45.572;38.086;2023-02-26T00:53:44;1.23;;;0.80;;
67363;SDS011;54250;45.572;38.086;2023-02-26T00:56:14;2.25;;;0.70;;
67363;SDS011;54250;45.572;38.086;2023-02-26T00:58:40;0.80;;;0.80;;
67363;SDS011;54250;45.572;38.086;2023-02-26T01:01:07;5.72;;;1.13;;
67363;SDS011;54250;45.572;38.086;2023-02-26T01:03:33;2.30;;;1.15;;
67363;SDS011;54250;45.572;38.086;2023-02-26T01:05:59;2.88;;;1.02;;
67363;SDS011;54250;45.572;38.086;2023-02-26T01:08:28;1.58;;;0.90;;
67363;SDS011;54250;45.572;38.086;2023-02-26T01:11:00;2.20;;;1.02;;
67363;SDS011;54250;45.572;38.086;2023-02-26T01:13:27;6.30;;;0.70;;
67363;SDS011;54250;45.572;38.086;2023-02-26T01:15:54;1.38;;;0.98;;
67363;SDS011;54250;45.572;38.086;2023-02-26T01:18:27;2.15;;;0.77;;
67363;SDS011;54250;45.572;38.086;2023-02-26T01:21:03;4.60;;;1.27;;
67363;SDS011;54250;45.572;38.086;2023-02-26T01:23:34;3.65;;;1.15;;
67363;SDS011;54250;45.572;38.086;2023-02-26T01:26:07;4.00;;;1.25;;
67363;SDS011;54250;45.572;38.086;2023-02-26T01:28:39;3.47;;;0.70;;
67363;SDS011;54250;45.572;38.086;2023-02-26T01:31:05;2.42;;;1.00;;
67363;SDS011;54250;45.572;38.086;2023-02-26T01:36:14;3.05;;;1.63;;
67363;SDS011;54250;45.572;38.086;2023-02-26T01:44:50;3.35;;;1.27;;
67363;SDS011;54250;45.572;38.086;2023-02-26T01:47:33;0.73;;;0.52;;
67363;SDS011;54250;45.572;38.086;2023-02-26T01:55:17;6.57;;;1.27;;
67363;SDS011;54250;45.572;38.086;2023-02-26T01:57:48;1.88;;;1.35;;
67363;SDS011;54250;45.572;38.086;2023-02-26T02:00:17;4.68;;;1.73;;
67363;SDS011;54250;45.572;38.086;2023-02-26T02:02:43;3.55;;;0.93;;
67363;SDS011;54250;45.572;38.086;2023-02-26T02:05:14;3.30;;;1.02;;
67363;SDS011;54250;45.572;38.086;2023-02-26T02:07:46;2.83;;;1.70;;
67363;SDS011;54250;45.572;38.086;2023-02-26T02:10:12;2.13;;;1.30;;
67363;SDS011;54250;45.572;38.086;2023-02-26T02:12:48;3.25;;;1.02;;
67363;SDS011;54250;45.572;38.086;2023-02-26T02:18:52;2.35;;;1.23;;
67363;SDS011;54250;45.572;38.086;2023-02-26T02:33:57;2.67;;;1.05;;
67363;SDS011;54250;45.572;38.086;2023-02-26T02:39:28;4.32;;;1.33;;
67363;SDS011;54250;45.572;38.086;2023-02-26T02:45:04;0.95;;;0.75;;
67363;SDS011;54250;45.572;38.086;2023-02-26T02:47:36;3.65;;;1.00;;
67363;SDS011;54250;45.572;38.086;2023-02-26T02:52:55;3.30;;;1.40;;
67363;SDS011;54250;45.572;38.086;2023-02-26T02:55:26;2.55;;;1.10;;
67363;SDS011;54250;45.572;38.086;2023-02-26T02:58:15;4.93;;;1.23;;
67363;SDS011;54250;45.572;38.086;2023-02-26T03:00:46;2.42;;;1.55;;
67363;SDS011;54250;45.572;38.086;2023-02-26T03:03:20;4.30;;;1.92;;
67363;SDS011;54250;45.572;38.086;2023-02-26T03:08:16;2.85;;;1.38;;
67363;SDS011;54250;45.572;38.086;2023-02-26T03:10:45;3.40;;;1.30;;
67363;SDS011;54250;45.572;38.086;2023-02-26T03:13:14;2.38;;;1.15;;
67363;SDS011;54250;45.572;38.086;2023-02-26T03:18:40;1.48;;;1.30;;
67363;SDS011;54250;45.572;38.086;2023-02-26T03:30:24;10.52;;;1.90;;
67363;SDS011;54250;45.572;38.086;2023-02-26T03:35:36;4.80;;;1.27;;
67363;SDS011;54250;45.572;38.086;2023-02-26T03:38:11;4.43;;;1.13;;
67363;SDS011;54250;45.572;38.086;2023-02-26T03:40:44;5.03;;;1.95;;
67363;SDS011;54250;45.572;38.086;2023-02-26T03:43:31;2.03;;;1.10;;
67363;SDS011;54250;45.572;38.086;2023-02-26T03:46:25;5.03;;;1.65;;
67363;SDS011;54250;45.572;38.086;2023-02-26T03:48:58;1.83;;;1.40;;
67363;SDS011;54250;45.572;38.086;2023-02-26T03:51:31;11.70;;;1.07;;
67363;SDS011;54250;45.572;38.086;2023-02-26T03:54:24;1.70;;;1.13;;
67363;SDS011;54250;45.572;38.086;2023-02-26T03:57:33;1.50;;;1.08;;
67363;SDS011;54250;45.572;38.086;2023-02-26T04:00:13;1.70;;;1.05;;
67363;SDS011;54250;45.572;38.086;2023-02-26T04:02:59;8.38;;;1.48;;
67363;SDS011;54250;45.572;38.086;2023-02-26T04:05:34;3.00;;;1.52;;
67363;SDS011;54250;45.572;38.086;2023-02-26T04:08:05;4.57;;;2.13;;
67363;SDS011;54250;45.572;38.086;2023-02-26T04:10:33;6.53;;;1.73;;
67363;SDS011;54250;45.572;38.086;2023-02-26T04:13:06;4.15;;;2.72;;
67363;SDS011;54250;45.572;38.086;2023-02-26T04:15:33;1.85;;;0.98;;
67363;SDS011;54250;45.572;38.086;2023-02-26T04:17:59;1.00;;;0.90;;
67363;SDS011;54250;45.572;38.086;2023-02-26T04:20:26;3.55;;;0.98;;
67363;SDS011;54250;45.572;38.086;2023-02-26T04:22:53;9.10;;;1.75;;
67363;SDS011;54250;45.572;38.086;2023-02-26T04:25:21;2.55;;;1.35;;
67363;SDS011;54250;45.572;38.086;2023-02-26T04:27:50;5.45;;;1.77;;
67363;SDS011;54250;45.572;38.086;2023-02-26T04:30:16;2.38;;;1.27;;
67363;SDS011;54250;45.572;38.086;2023-02-26T04:32:42;4.97;;;1.95;;
67363;SDS011;54250;45.572;38.086;2023-02-26T04:35:10;3.60;;;1.70;;
67363;SDS011;54250;45.572;38.086;2023-02-26T04:37:36;3.50;;;1.27;;
67363;SDS011;54250;45.572;38.086;2023-02-26T04:40:02;1.45;;;1.10;;
67363;SDS011;54250;45.572;38.086;2023-02-26T04:42:29;5.55;;;2.47;;
67363;SDS011;54250;45.572;38.086;2023-02-26T04:44:55;6.57;;;1.48;;
67363;SDS011;54250;45.572;38.086;2023-02-26T04:47:24;2.33;;;0.90;;
67363;SDS011;54250;45.572;38.086;2023-02-26T04:49:50;2.28;;;1.00;;
67363;SDS011;54250;45.572;38.086;2023-02-26T04:52:16;3.42;;;1.30;;
67363;SDS011;54250;45.572;38.086;2023-02-26T04:54:42;7.50;;;2.47;;
67363;SDS011;54250;45.572;38.086;2023-02-26T04:57:09;5.38;;;2.13;;
67363;SDS011;54250;45.572;38.086;2023-02-26T04:59:36;4.80;;;1.50;;
67363;SDS011;54250;45.572;38.086;2023-02-26T05:02:03;13.90;;;1.60;;
67363;SDS011;54250;45.572;38.086;2023-02-26T05:04:31;3.35;;;1.60;;
67363;SDS011;54250;45.572;38.086;2023-02-26T05:06:59;2.38;;;1.13;;
67363;SDS011;54250;45.572;38.086;2023-02-26T05:09:25;3.38;;;1.67;;
67363;SDS011;54250;45.572;38.086;2023-02-26T05:11:51;5.88;;;1.65;;
67363;SDS011;54250;45.572;38.086;2023-02-26T05:14:17;3.25;;;1.33;;
67363;SDS011;54250;45.572;38.086;2023-02-26T05:16:46;7.03;;;1.77;;
67363;SDS011;54250;45.572;38.086;2023-02-26T05:19:13;3.33;;;1.42;;
67363;SDS011;54250;45.572;38.086;2023-02-26T05:21:39;3.78;;;1.63;;
67363;SDS011;54250;45.572;38.086;2023-02-26T05:24:05;4.78;;;2.10;;
67363;SDS011;54250;45.572;38.086;2023-02-26T05:26:31;7.72;;;1.95;;
67363;SDS011;54250;45.572;38.086;2023-02-26T05:28:57;2.97;;;1.38;;
67363;SDS011;54250;45.572;38.086;2023-02-26T05:31:24;4.28;;;1.15;;
67363;SDS011;54250;45.572;38.086;2023-02-26T05:33:51;1.30;;;1.10;;
67363;SDS011;54250;45.572;38.086;2023-02-26T05:36:17;17.20;;;1.50;;
67363;SDS011;54250;45.572;38.086;2023-02-26T05:38:43;3.25;;;1.20;;
67363;SDS011;54250;45.572;38.086;2023-02-26T05:41:09;7.05;;;1.92;;
67363;SDS011;54250;45.572;38.086;2023-02-26T05:43:35;1.98;;;1.30;;
67363;SDS011;54250;45.572;38.086;2023-02-26T05:46:01;5.20;;;1.30;;
67363;SDS011;54250;45.572;38.086;2023-02-26T05:48:27;3.33;;;1.50;;
67363;SDS011;54250;45.572;38.086;2023-02-26T05:50:55;6.28;;;1.58;;
67363;SDS011;54250;45.572;38.086;2023-02-26T05:53:21;2.88;;;1.95;;
67363;SDS011;54250;45.572;38.086;2023-02-26T05:55:47;3.80;;;1.55;;
67363;SDS011;54250;45.572;38.086;2023-02-26T05:58:13;6.65;;;1.55;;
67363;SDS011;54250;45.572;38.086;2023-02-26T06:00:40;1.85;;;1.30;;
67363;SDS011;54250;45.572;38.086;2023-02-26T06:03:06;4.13;;;2.05;;
67363;SDS011;54250;45.572;38.086;2023-02-26T06:05:32;4.72;;;2.08;;
67363;SDS011;54250;45.572;38.086;2023-02-26T06:07:58;2.75;;;1.27;;
67363;SDS011;54250;45.572;38.086;2023-02-26T06:10:24;2.42;;;1.80;;
67363;SDS011;54250;45.572;38.086;2023-02-26T06:12:50;2.10;;;1.25;;
67363;SDS011;54250;45.572;38.086;2023-02-26T06:15:16;2.10;;;1.33;;
67363;SDS011;54250;45.572;38.086;2023-02-26T06:17:42;3.50;;;1.60;;
67363;SDS011;54250;45.572;38.086;2023-02-26T06:20:08;2.20;;;1.38;;
67363;SDS011;54250;45.572;38.086;2023-02-26T06:22:35;3.15;;;1.90;;
67363;SDS011;54250;45.572;38.086;2023-02-26T06:25:01;1.45;;;1.23;;
67363;SDS011;54250;45.572;38.086;2023-02-26T06:27:27;5.45;;;1.67;;
67363;SDS011;54250;45.572;38.086;2023-02-26T06:29:53;2.25;;;1.17;;
67363;SDS011;54250;45.572;38.086;2023-02-26T06:32:19;4.78;;;1.70;;
67363;SDS011;54250;45.572;38.086;2023-02-26T06:34:45;8.32;;;1.80;;
67363;SDS011;54250;45.572;38.086;2023-02-26T06:37:11;12.60;;;1.77;;
67363;SDS011;54250;45.572;38.086;2023-02-26T06:39:37;3.30;;;1.85;;
67363;SDS011;54250;45.572;38.086;2023-02-26T06:42:03;7.50;;;1.98;;
67363;SDS011;54250;45.572;38.086;2023-02-26T06:44:29;4.45;;;1.52;;
67363;SDS011;54250;45.572;38.086;2023-02-26T06:46:55;2.75;;;1.60;;
67363;SDS011;54250;45.572;38.086;2023-02-26T06:49:21;5.05;;;2.13;;
67363;SDS011;54250;45.572;38.086;2023-02-26T06:51:47;1.83;;;1.23;;
67363;SDS011;54250;45.572;38.086;2023-02-26T06:54:13;5.75;;;1.85;;
67363;SDS011;54250;45.572;38.086;2023-02-26T06:56:39;5.32;;;1.30;;
67363;SDS011;54250;45.572;38.086;2023-02-26T06:59:05;6.25;;;2.08;;
67363;SDS011;54250;45.572;38.086;2023-02-26T07:01:31;3.45;;;1.17;;
67363;SDS011;54250;45.572;38.086;2023-02-26T07:03:57;2.88;;;1.63;;
67363;SDS011;54250;45.572;38.086;2023-02-26T07:06:24;3.85;;;1.92;;
67363;SDS011;54250;45.572;38.086;2023-02-26T07:08:50;3.53;;;1.80;;
67363;SDS011;54250;45.572;38.086;2023-02-26T07:11:17;4.93;;;1.88;;
67363;SDS011;54250;45.572;38.086;2023-02-26T07:13:43;3.95;;;1.35;;
67363;SDS011;54250;45.572;38.086;2023-02-26T07:16:09;7.28;;;1.52;;
67363;SDS011;54250;45.572;38.086;2023-02-26T07:18:36;6.68;;;3.13;;
67363;SDS011;54250;45.572;38.086;2023-02-26T07:21:02;3.20;;;2.03;;
67363;SDS011;54250;45.572;38.086;2023-02-26T07:23:29;4.28;;;1.98;;
67363;SDS011;54250;45.572;38.086;2023-02-26T07:25:56;1.58;;;1.35;;
67363;SDS011;54250;45.572;38.086;2023-02-26T07:28:22;5.55;;;2.45;;
67363;SDS011;54250;45.572;38.086;2023-02-26T07:30:48;3.70;;;1.35;;
67363;SDS011;54250;45.572;38.086;2023-02-26T07:33:15;3.45;;;1.40;;
67363;SDS011;54250;45.572;38.086;2023-02-26T07:35:41;9.95;;;1.92;;
67363;SDS011;54250;45.572;38.086;2023-02-26T07:38:07;2.17;;;1.38;;
67363;SDS011;54250;45.572;38.086;2023-02-26T07:40:33;4.90;;;2.00;;
67363;SDS011;54250;45.572;38.086;2023-02-26T07:42:59;2.72;;;1.90;;
67363;SDS011;54250;45.572;38.086;2023-02-26T07:45:25;6.88;;;2.65;;
67363;SDS011;54250;45.572;38.086;2023-02-26T07:47:52;5.57;;;2.25;;
67363;SDS011;54250;45.572;38.086;2023-02-26T07:50:23;4.40;;;2.22;;
67363;SDS011;54250;45.572;38.086;2023-02-26T07:52:53;4.10;;;1.73;;
67363;SDS011;54250;45.572;38.086;2023-02-26T07:55:19;2.95;;;1.65;;
67363;SDS011;54250;45.572;38.086;2023-02-26T07:57:45;3.90;;;2.08;;
67363;SDS011;54250;45.572;38.086;2023-02-26T08:00:11;5.45;;;1.95;;
67363;SDS011;54250;45.572;38.086;2023-02-26T08:02:38;5.47;;;2.08;;
67363;SDS011;54250;45.572;38.086;2023-02-26T08:05:05;3.28;;;1.75;;
67363;SDS011;54250;45.572;38.086;2023-02-26T08:07:31;5.03;;;2.15;;
67363;SDS011;54250;45.572;38.086;2023-02-26T08:09:57;4.75;;;2.33;;
67363;SDS011;54250;45.572;38.086;2023-02-26T08:12:23;5.43;;;2.53;;
67363;SDS011;54250;45.572;38.086;2023-02-26T08:14:49;3.83;;;1.75;;
67363;SDS011;54250;45.572;38.086;2023-02-26T08:17:15;3.88;;;2.53;;
67363;SDS011;54250;45.572;38.086;2023-02-26T08:19:41;6.95;;;2.33;;
67363;SDS011;54250;45.572;38.086;2023-02-26T08:22:08;4.28;;;2.15;;
67363;SDS011;54250;45.572;38.086;2023-02-26T08:25:29;6.78;;;2.40;;
67363;SDS011;54250;45.572;38.086;2023-02-26T08:28:11;3.67;;;2.00;;
67363;SDS011;54250;45.572;38.086;2023-02-26T08:30:42;5.95;;;2.30;;
67363;SDS011;54250;45.572;38.086;2023-02-26T08:33:14;14.40;;;2.53;;
67363;SDS011;54250;45.572;38.086;2023-02-26T08:35:51;4.63;;;1.83;;
67363;SDS011;54250;45.572;38.086;2023-02-26T08:38:18;5.32;;;2.80;;
67363;SDS011;54250;45.572;38.086;2023-02-26T08:40:44;2.45;;;1.77;;
67363;SDS011;54250;45.572;38.086;2023-02-26T08:43:14;4.57;;;1.90;;
67363;SDS011;54250;45.572;38.086;2023-02-26T08:45:40;4.97;;;2.35;;
67363;SDS011;54250;45.572;38.086;2023-02-26T08:48:06;3.63;;;2.22;;
67363;SDS011;54250;45.572;38.086;2023-02-26T08:50:32;4.22;;;2.53;;
67363;SDS011;54250;45.572;38.086;2023-02-26T08:52:58;4.05;;;2.00;;
67363;SDS011;54250;45.572;38.086;2023-02-26T08:55:24;3.42;;;1.90;;
67363;SDS011;54250;45.572;38.086;2023-02-26T08:57:50;4.35;;;2.20;;
67363;SDS011;54250;45.572;38.086;2023-02-26T09:00:26;4.10;;;1.92;;
67363;SDS011;54250;45.572;38.086;2023-02-26T09:02:53;7.53;;;2.58;;
67363;SDS011;54250;45.572;38.086;2023-02-26T09:05:19;2.55;;;1.55;;
67363;SDS011;54250;45.572;38.086;2023-02-26T09:07:45;5.38;;;2.15;;
67363;SDS011;54250;45.572;38.086;2023-02-26T09:10:12;7.18;;;3.20;;
67363;SDS011;54250;45.572;38.086;2023-02-26T09:12:38;9.77;;;3.10;;
67363;SDS011;54250;45.572;38.086;2023-02-26T09:15:05;9.27;;;2.28;;
67363;SDS011;54250;45.572;38.086;2023-02-26T09:17:33;4.30;;;2.50;;
67363;SDS011;54250;45.572;38.086;2023-02-26T09:19:59;3.67;;;2.58;;
67363;SDS011;54250;45.572;38.086;2023-02-26T09:22:25;4.95;;;2.38;;
67363;SDS011;54250;45.572;38.086;2023-02-26T09:24:51;3.08;;;2.33;;
67363;SDS011;54250;45.572;38.086;2023-02-26T09:27:18;2.47;;;1.70;;
67363;SDS011;54250;45.572;38.086;2023-02-26T09:29:46;5.10;;;2.53;;
67363;SDS011;54250;45.572;38.086;2023-02-26T09:32:12;3.13;;;2.15;;
67363;SDS011;54250;45.572;38.086;2023-02-26T09:34:38;7.15;;;2.85;;
67363;SDS011;54250;45.572;38.086;2023-02-26T09:37:05;3.20;;;2.40;;
67363;SDS011;54250;45.572;38.086;2023-02-26T09:39:33;7.88;;;1.80;;
67363;SDS011;54250;45.572;38.086;2023-02-26T09:42:06;2.60;;;1.90;;
67363;SDS011;54250;45.572;38.086;2023-02-26T09:44:42;4.03;;;1.90;;
67363;SDS011;54250;45.572;38.086;2023-02-26T09:55:26;5.25;;;2.42;;
67363;SDS011;54250;45.572;38.086;2023-02-26T09:58:03;5.53;;;2.33;;
67363;SDS011;54250;45.572;38.086;2023-02-26T10:06:37;4.13;;;2.25;;
67363;SDS011;54250;45.572;38.086;2023-02-26T10:11:35;2.72;;;1.60;;
67363;SDS011;54250;45.572;38.086;2023-02-26T10:14:18;2.70;;;1.67;;
67363;SDS011;54250;45.572;38.086;2023-02-26T10:16:52;4.55;;;1.98;;
67363;SDS011;54250;45.572;38.086;2023-02-26T10:19:25;7.00;;;2.65;;
67363;SDS011;54250;45.572;38.086;2023-02-26T10:24:48;9.10;;;3.40;;
67363;SDS011;54250;45.572;38.086;2023-02-26T10:27:19;14.93;;;2.60;;
67363;SDS011;54250;45.572;38.086;2023-02-26T10:35:52;12.50;;;5.97;;
67363;SDS011;54250;45.572;38.086;2023-02-26T10:38:23;12.02;;;3.50;;
67363;SDS011;54250;45.572;38.086;2023-02-26T10:40:52;13.02;;;5.88;;
67363;SDS011;54250;45.572;38.086;2023-02-26T10:49:27;5.13;;;2.65;;
67363;SDS011;54250;45.572;38.086;2023-02-26T10:52:26;5.90;;;2.53;;
67363;SDS011;54250;45.572;38.086;2023-02-26T10:57:47;2.42;;;1.83;;
67363;SDS011;54250;45.572;38.086;2023-02-26T11:00:19;3.47;;;2.08;;
67363;SDS011;54250;45.572;38.086;2023-02-26T11:02:50;2.72;;;1.75;;
67363;SDS011;54250;45.572;38.086;2023-02-26T11:05:27;3.65;;;2.08;;
67363;SDS011;54250;45.572;38.086;2023-02-26T11:08:02;2.97;;;1.83;;
67363;SDS011;54250;45.572;38.086;2023-02-26T11:10:41;4.15;;;2.25;;
67363;SDS011;54250;45.572;38.086;2023-02-26T11:13:18;13.98;;;2.45;;
67363;SDS011;54250;45.572;38.086;2023-02-26T11:15:47;3.28;;;1.80;;
67363;SDS011;54250;45.572;38.086;2023-02-26T11:18:17;2.65;;;1.50;;
67363;SDS011;54250;45.572;38.086;2023-02-26T11:20:48;5.03;;;2.10;;
67363;SDS011;54250;45.572;38.086;2023-02-26T11:23:19;5.18;;;2.08;;
67363;SDS011;54250;45.572;38.086;2023-02-26T11:25:51;4.28;;;1.92;;
67363;SDS011;54250;45.572;38.086;2023-02-26T11:28:46;1.75;;;1.60;;
67363;SDS011;54250;45.572;38.086;2023-02-26T11:31:15;4.15;;;1.95;;
67363;SDS011;54250;45.572;38.086;2023-02-26T11:33:44;11.18;;;2.85;;
67363;SDS011;54250;45.572;38.086;2023-02-26T11:36:15;3.97;;;2.03;;
67363;SDS011;54250;45.572;38.086;2023-02-26T11:38:44;16.13;;;2.75;;
67363;SDS011;54250;45.572;38.086;2023-02-26T11:41:16;4.00;;;2.40;;
67363;SDS011;54250;45.572;38.086;2023-02-26T11:43:44;4.18;;;2.85;;
67363;SDS011;54250;45.572;38.086;2023-02-26T11:46:13;4.78;;;2.92;;
67363;SDS011;54250;45.572;38.086;2023-02-26T11:48:46;3.95;;;2.38;;
67363;SDS011;54250;45.572;38.086;2023-02-26T11:51:14;4.85;;;2.47;;
67363;SDS011;54250;45.572;38.086;2023-02-26T11:53:51;3.53;;;2.45;;
67363;SDS011;54250;45.572;38.086;2023-02-26T11:56:28;3.95;;;2.10;;
67363;SDS011;54250;45.572;38.086;2023-02-26T11:59:05;4.93;;;2.50;;
67363;SDS011;54250;45.572;38.086;2023-02-26T12:01:34;2.88;;;1.90;;
67363;SDS011;54250;45.572;38.086;2023-02-26T12:04:01;4.47;;;2.47;;
67363;SDS011;54250;45.572;38.086;2023-02-26T12:06:28;4.05;;;1.70;;
67363;SDS011;54250;45.572;38.086;2023-02-26T12:08:55;5.32;;;1.95;;
67363;SDS011;54250;45.572;38.086;2023-02-26T12:27:34;3.00;;;1.33;;
67363;SDS011;54250;45.572;38.086;2023-02-26T12:32:45;2.13;;;1.50;;
67363;SDS011;54250;45.572;38.086;2023-02-26T12:38:48;3.63;;;1.90;;
67363;SDS011;54250;45.572;38.086;2023-02-26T12:47:25;6.47;;;2.58;;
67363;SDS011;54250;45.572;38.086;2023-02-26T13:04:13;5.93;;;3.45;;
67363;SDS011;54250;45.572;38.086;2023-02-26T13:12:49;12.13;;;7.05;;
67363;SDS011;54250;45.572;38.086;2023-02-26T13:15:04;13.75;;;6.45;;
67363;SDS011;54250;45.572;38.086;2023-02-26T13:20:16;9.95;;;5.47;;
67363;SDS011;54250;45.572;38.086;2023-02-26T13:22:50;12.15;;;7.15;;
67363;SDS011;54250;45.572;38.086;2023-02-26T13:28:06;11.02;;;5.35;;
67363;SDS011;54250;45.572;38.086;2023-02-26T13:30:54;15.43;;;6.53;;
67363;SDS011;54250;45.572;38.086;2023-02-26T13:33:27;17.63;;;9.10;;
67363;SDS011;54250;45.572;38.086;2023-02-26T13:35:56;10.25;;;5.47;;
67363;SDS011;54250;45.572;38.086;2023-02-26T13:38:27;13.68;;;6.15;;
67363;SDS011;54250;45.572;38.086;2023-02-26T13:41:33;9.63;;;5.30;;
67363;SDS011;54250;45.572;38.086;2023-02-26T13:44:30;6.55;;;4.57;;
67363;SDS011;54250;45.572;38.086;2023-02-26T13:47:14;8.48;;;3.72;;
67363;SDS011;54250;45.572;38.086;2023-02-26T13:50:22;10.02;;;5.00;;
67363;SDS011;54250;45.572;38.086;2023-02-26T13:52:53;18.98;;;5.65;;
67363;SDS011;54250;45.572;38.086;2023-02-26T14:01:04;8.52;;;5.13;;
67363;SDS011;54250;45.572;38.086;2023-02-26T14:03:50;6.57;;;3.75;;
67363;SDS011;54250;45.572;38.086;2023-02-26T14:19:36;17.20;;;7.10;;
67363;SDS011;54250;45.572;38.086;2023-02-26T14:22:19;20.50;;;7.90;;
67363;SDS011;54250;45.572;38.086;2023-02-26T14:24:52;16.90;;;6.78;;
67363;SDS011;54250;45.572;38.086;2023-02-26T14:40:57;8.02;;;3.83;;
67363;SDS011;54250;45.572;38.086;2023-02-26T14:45:55;4.78;;;2.35;;
67363;SDS011;54250;45.572;38.086;2023-02-26T14:48:22;8.90;;;2.97;;
67363;SDS011;54250;45.572;38.086;2023-02-26T15:08:12;5.22;;;3.00;;
67363;SDS011;54250;45.572;38.086;2023-02-26T15:19:09;11.32;;;4.30;;
67363;SDS011;54250;45.572;38.086;2023-02-26T15:22:03;4.57;;;2.65;;
67363;SDS011;54250;45.572;38.086;2023-02-26T15:24:33;7.22;;;3.10;;
67363;SDS011;54250;45.572;38.086;2023-02-26T15:27:00;5.28;;;2.53;;
67363;SDS011;54250;45.572;38.086;2023-02-26T15:29:29;6.03;;;2.15;;
67363;SDS011;54250;45.572;38.086;2023-02-26T15:32:35;9.52;;;2.78;;
67363;SDS011;54250;45.572;38.086;2023-02-26T15:37:47;14.68;;;4.63;;
67363;SDS011;54250;45.572;38.086;2023-02-26T15:40:15;8.23;;;4.45;;
67363;SDS011;54250;45.572;38.086;2023-02-26T15:42:43;8.73;;;2.67;;
67363;SDS011;54250;45.572;38.086;2023-02-26T15:45:24;5.55;;;2.83;;
67363;SDS011;54250;45.572;38.086;2023-02-26T15:47:59;9.80;;;3.58;;
67363;SDS011;54250;45.572;38.086;2023-02-26T15:50:30;8.82;;;3.45;;
67363;SDS011;54250;45.572;38.086;2023-02-26T15:53:00;8.10;;;4.15;;
67363;SDS011;54250;45.572;38.086;2023-02-26T15:55:30;17.08;;;5.53;;
67363;SDS011;54250;45.572;38.086;2023-02-26T15:58:00;9.60;;;4.53;;
67363;SDS011;54250;45.572;38.086;2023-02-26T16:00:28;9.77;;;4.00;;
67363;SDS011;54250;45.572;38.086;2023-02-26T16:03:00;8.50;;;3.08;;
67363;SDS011;54250;45.572;38.086;2023-02-26T16:05:28;5.82;;;3.60;;
67363;SDS011;54250;45.572;38.086;2023-02-26T16:07:54;4.53;;;3.25;;
67363;SDS011;54250;45.572;38.086;2023-02-26T16:10:32;9.70;;;3.65;;
67363;SDS011;54250;45.572;38.086;2023-02-26T16:13:03;6.43;;;3.97;;
67363;SDS011;54250;45.572;38.086;2023-02-26T16:15:32;6.20;;;2.78;;
67363;SDS011;54250;45.572;38.086;2023-02-26T16:18:03;10.15;;;4.82;;
67363;SDS011;54250;45.572;38.086;2023-02-26T16:20:35;12.88;;;5.07;;
67363;SDS011;54250;45.572;38.086;2023-02-26T16:23:14;11.38;;;4.07;;
67363;SDS011;54250;45.572;38.086;2023-02-26T16:25:49;8.88;;;3.35;;
67363;SDS011;54250;45.572;38.086;2023-02-26T16:28:23;9.20;;;4.03;;
67363;SDS011;54250;45.572;38.086;2023-02-26T16:30:59;9.98;;;3.85;;
67363;SDS011;54250;45.572;38.086;2023-02-26T16:33:33;6.43;;;3.38;;
67363;SDS011;54250;45.572;38.086;2023-02-26T16:36:03;8.95;;;5.22;;
67363;SDS011;54250;45.572;38.086;2023-02-26T16:39:07;10.65;;;4.78;;
67363;SDS011;54250;45.572;38.086;2023-02-26T16:41:46;9.45;;;4.05;;
67363;SDS011;54250;45.572;38.086;2023-02-26T16:46:56;5.35;;;2.47;;
67363;SDS011;54250;45.572;38.086;2023-02-26T16:49:24;3.95;;;2.35;;
67363;SDS011;54250;45.572;38.086;2023-02-26T16:51:55;6.55;;;3.05;;
67363;SDS011;54250;45.572;38.086;2023-02-26T16:54:23;10.35;;;3.25;;
67363;SDS011;54250;45.572;38.086;2023-02-26T16:57:12;9.63;;;3.47;;
67363;SDS011;54250;45.572;38.086;2023-02-26T16:59:51;4.88;;;2.40;;
67363;SDS011;54250;45.572;38.086;2023-02-26T17:04:52;7.32;;;3.25;;
67363;SDS011;54250;45.572;38.086;2023-02-26T17:07:30;11.30;;;5.32;;
67363;SDS011;54250;45.572;38.086;2023-02-26T17:10:08;8.60;;;4.60;;
67363;SDS011;54250;45.572;38.086;2023-02-26T17:12:45;12.50;;;5.30;;
67363;SDS011;54250;45.572;38.086;2023-02-26T17:15:26;8.77;;;4.28;;
67363;SDS011;54250;45.572;38.086;2023-02-26T17:17:56;10.48;;;4.88;;
67363;SDS011;54250;45.572;38.086;2023-02-26T17:20:23;7.55;;;4.18;;
67363;SDS011;54250;45.572;38.086;2023-02-26T17:22:51;6.10;;;3.40;;
67363;SDS011;54250;45.572;38.086;2023-02-26T17:25:17;4.95;;;3.03;;
67363;SDS011;54250;45.572;38.086;2023-02-26T17:27:45;7.38;;;3.33;;
67363;SDS011;54250;45.572;38.086;2023-02-26T17:30:17;7.78;;;3.17;;
67363;SDS011;54250;45.572;38.086;2023-02-26T17:32:46;6.82;;;2.95;;
67363;SDS011;54250;45.572;38.086;2023-02-26T17:35:13;10.60;;;4.03;;
67363;SDS011;54250;45.572;38.086;2023-02-26T17:37:40;7.13;;;2.85;;
67363;SDS011;54250;45.572;38.086;2023-02-26T17:40:20;6.10;;;3.17;;
67363;SDS011;54250;45.572;38.086;2023-02-26T17:42:52;7.18;;;3.95;;
67363;SDS011;54250;45.572;38.086;2023-02-26T17:45:18;8.93;;;3.17;;
67363;SDS011;54250;45.572;38.086;2023-02-26T17:47:47;4.78;;;2.65;;
67363;SDS011;54250;45.572;38.086;2023-02-26T17:52:59;7.45;;;2.80;;
67363;SDS011;54250;45.572;38.086;2023-02-26T17:55:25;6.47;;;2.00;;
67363;SDS011;54250;45.572;38.086;2023-02-26T17:57:52;2.40;;;1.92;;
67363;SDS011;54250;45.572;38.086;2023-02-26T18:00:19;3.58;;;1.83;;
67363;SDS011;54250;45.572;38.086;2023-02-26T18:02:45;4.53;;;2.83;;
67363;SDS011;54250;45.572;38.086;2023-02-26T18:05:11;1.88;;;1.40;;
67363;SDS011;54250;45.572;38.086;2023-02-26T18:07:38;3.88;;;2.03;;
67363;SDS011;54250;45.572;38.086;2023-02-26T18:10:05;7.13;;;2.72;;
67363;SDS011;54250;45.572;38.086;2023-02-26T18:12:32;1.73;;;1.38;;
67363;SDS011;54250;45.572;38.086;2023-02-26T18:14:59;7.53;;;2.45;;
67363;SDS011;54250;45.572;38.086;2023-02-26T18:17:27;5.00;;;2.33;;
67363;SDS011;54250;45.572;38.086;2023-02-26T18:19:56;3.78;;;1.73;;
67363;SDS011;54250;45.572;38.086;2023-02-26T18:22:23;3.63;;;2.15;;
67363;SDS011;54250;45.572;38.086;2023-02-26T18:24:51;6.07;;;1.60;;
67363;SDS011;54250;45.572;38.086;2023-02-26T18:27:19;4.10;;;1.85;;
67363;SDS011;54250;45.572;38.086;2023-02-26T18:29:47;3.67;;;1.58;;
67363;SDS011;54250;45.572;38.086;2023-02-26T18:32:20;6.22;;;2.15;;
67363;SDS011;54250;45.572;38.086;2023-02-26T18:34:48;4.32;;;2.05;;